Terminal Aerodrome Forecast
Issued by NWS

Home | Current Version | Previous Version | Text Only | Print | Product List | Glossary On
Versions: 1 2 3 4 5 6 7 8 9 10 11 12 13 14 15 16 17 18 19 20 21 22 23 24 25 26 27 28 29 30 31 32 33 34 35 36 37 38 39 40 41 42 43 44 45 46 47
000
FTAK31 PANC 210214 AAA
TAFASN
TAF AMD
PASN 210214Z 2102/2124 06022G33KT 6SM -RA BR BKN015 BKN025
      TEMPO 2102/2104 SCT015
     FM210500 05028G38KT 3SM -RA BR OVC005
     FM210900 05025G35KT 4SM -RA BR BKN009
     FM212000 03024G33KT P6SM -SHRA OVC015=

USA.gov is the U.S. government's official web portal to all federal, state and local government web resources and services.